sensor_id;sensor_type;location;lat;lon;timestamp;temperature;humidity
68354;DHT22;55274;43.060;25.618;2023-06-14T00:01:20;20.80;95.70
68354;DHT22;55274;43.060;25.618;2023-06-14T00:03:47;20.70;96.00
68354;DHT22;55274;43.060;25.618;2023-06-14T00:06:14;20.70;96.10
68354;DHT22;55274;43.060;25.618;2023-06-14T00:08:40;20.70;96.20
68354;DHT22;55274;43.060;25.618;2023-06-14T00:11:06;20.60;96.20
68354;DHT22;55274;43.060;25.618;2023-06-14T00:13:32;20.60;96.30
68354;DHT22;55274;43.060;25.618;2023-06-14T00:15:58;20.60;96.30
68354;DHT22;55274;43.060;25.618;2023-06-14T00:18:24;20.60;96.30
68354;DHT22;55274;43.060;25.618;2023-06-14T00:20:51;20.60;96.60
68354;DHT22;55274;43.060;25.618;2023-06-14T00:23:17;20.50;96.80
68354;DHT22;55274;43.060;25.618;2023-06-14T00:25:43;20.60;96.80
68354;DHT22;55274;43.060;25.618;2023-06-14T00:28:09;20.60;96.80
68354;DHT22;55274;43.060;25.618;2023-06-14T00:30:35;20.60;97.40
68354;DHT22;55274;43.060;25.618;2023-06-14T00:33:00;20.50;97.80
68354;DHT22;55274;43.060;25.618;2023-06-14T00:35:26;20.50;98.10
68354;DHT22;55274;43.060;25.618;2023-06-14T00:37:52;20.40;98.30
68354;DHT22;55274;43.060;25.618;2023-06-14T00:40:20;20.30;98.70
68354;DHT22;55274;43.060;25.618;2023-06-14T00:42:46;20.30;98.90
68354;DHT22;55274;43.060;25.618;2023-06-14T00:45:12;20.30;98.80
68354;DHT22;55274;43.060;25.618;2023-06-14T00:47:38;20.30;99.00
68354;DHT22;55274;43.060;25.618;2023-06-14T00:50:07;20.30;99.20
68354;DHT22;55274;43.060;25.618;2023-06-14T00:52:33;20.10;99.10
68354;DHT22;55274;43.060;25.618;2023-06-14T00:55:00;20.20;99.00
68354;DHT22;55274;43.060;25.618;2023-06-14T00:57:26;20.20;99.30
68354;DHT22;55274;43.060;25.618;2023-06-14T00:59:52;20.10;99.30
68354;DHT22;55274;43.060;25.618;2023-06-14T01:02:20;20.00;99.50
68354;DHT22;55274;43.060;25.618;2023-06-14T01:04:47;20.00;99.60
68354;DHT22;55274;43.060;25.618;2023-06-14T01:07:40;20.00;99.50
68354;DHT22;55274;43.060;25.618;2023-06-14T01:15:50;20.00;99.60
68354;DHT22;55274;43.060;25.618;2023-06-14T01:18:17;19.90;99.90
68354;DHT22;55274;43.060;25.618;2023-06-14T01:20:44;19.80;99.90
68354;DHT22;55274;43.060;25.618;2023-06-14T01:23:11;19.80;99.90
68354;DHT22;55274;43.060;25.618;2023-06-14T01:25:38;19.70;99.90
68354;DHT22;55274;43.060;25.618;2023-06-14T01:28:06;19.60;99.90
68354;DHT22;55274;43.060;25.618;2023-06-14T01:30:40;19.50;99.90
68354;DHT22;55274;43.060;25.618;2023-06-14T01:33:12;19.50;99.90
68354;DHT22;55274;43.060;25.618;2023-06-14T01:35:43;19.40;99.90
68354;DHT22;55274;43.060;25.618;2023-06-14T01:38:09;19.40;99.90
68354;DHT22;55274;43.060;25.618;2023-06-14T01:40:35;19.40;99.90
68354;DHT22;55274;43.060;25.618;2023-06-14T01:43:01;19.30;99.90
68354;DHT22;55274;43.060;25.618;2023-06-14T01:45:29;19.30;99.90
68354;DHT22;55274;43.060;25.618;2023-06-14T01:47:55;19.20;99.90
68354;DHT22;55274;43.060;25.618;2023-06-14T01:50:21;19.20;99.90
68354;DHT22;55274;43.060;25.618;2023-06-14T01:52:47;19.00;99.90
68354;DHT22;55274;43.060;25.618;2023-06-14T01:55:12;19.00;99.90
68354;DHT22;55274;43.060;25.618;2023-06-14T01:57:38;19.00;99.90
68354;DHT22;55274;43.060;25.618;2023-06-14T02:00:05;19.00;99.90
68354;DHT22;55274;43.060;25.618;2023-06-14T02:02:38;18.90;99.90
68354;DHT22;55274;43.060;25.618;2023-06-14T02:05:04;18.90;99.90
68354;DHT22;55274;43.060;25.618;2023-06-14T02:07:30;18.90;99.90
68354;DHT22;55274;43.060;25.618;2023-06-14T02:09:55;18.90;99.90
68354;DHT22;55274;43.060;25.618;2023-06-14T02:12:21;18.80;99.90
68354;DHT22;55274;43.060;25.618;2023-06-14T02:14:47;18.70;99.90
68354;DHT22;55274;43.060;25.618;2023-06-14T02:17:14;18.70;99.90
68354;DHT22;55274;43.060;25.618;2023-06-14T02:19:40;18.70;99.90
68354;DHT22;55274;43.060;25.618;2023-06-14T02:22:07;18.70;99.90
68354;DHT22;55274;43.060;25.618;2023-06-14T02:24:32;18.60;99.90
68354;DHT22;55274;43.060;25.618;2023-06-14T02:26:58;18.60;99.90
68354;DHT22;55274;43.060;25.618;2023-06-14T02:29:24;18.60;99.90
68354;DHT22;55274;43.060;25.618;2023-06-14T02:31:49;18.50;99.90
68354;DHT22;55274;43.060;25.618;2023-06-14T02:34:16;18.50;99.90
68354;DHT22;55274;43.060;25.618;2023-06-14T02:36:46;18.40;99.90
68354;DHT22;55274;43.060;25.618;2023-06-14T02:39:13;18.40;99.90
68354;DHT22;55274;43.060;25.618;2023-06-14T02:41:39;18.40;99.90
68354;DHT22;55274;43.060;25.618;2023-06-14T02:44:06;18.40;99.90
68354;DHT22;55274;43.060;25.618;2023-06-14T02:46:32;18.40;99.90
68354;DHT22;55274;43.060;25.618;2023-06-14T02:48:58;18.30;99.90
68354;DHT22;55274;43.060;25.618;2023-06-14T02:51:24;18.30;99.90
68354;DHT22;55274;43.060;25.618;2023-06-14T02:53:50;18.40;99.90
68354;DHT22;55274;43.060;25.618;2023-06-14T02:56:16;18.40;99.90
68354;DHT22;55274;43.060;25.618;2023-06-14T02:58:43;18.30;99.90
68354;DHT22;55274;43.060;25.618;2023-06-14T03:01:09;18.30;99.90
68354;DHT22;55274;43.060;25.618;2023-06-14T03:03:38;18.40;99.90
68354;DHT22;55274;43.060;25.618;2023-06-14T03:06:04;18.30;99.90
68354;DHT22;55274;43.060;25.618;2023-06-14T03:08:31;18.30;99.90
68354;DHT22;55274;43.060;25.618;2023-06-14T03:11:06;18.30;99.90
68354;DHT22;55274;43.060;25.618;2023-06-14T03:13:32;18.40;99.90
68354;DHT22;55274;43.060;25.618;2023-06-14T03:15:58;18.50;99.90
68354;DHT22;55274;43.060;25.618;2023-06-14T03:18:26;18.50;99.90
68354;DHT22;55274;43.060;25.618;2023-06-14T03:20:52;18.50;99.90
68354;DHT22;55274;43.060;25.618;2023-06-14T03:23:19;18.50;99.90
68354;DHT22;55274;43.060;25.618;2023-06-14T03:25:46;18.50;99.90
68354;DHT22;55274;43.060;25.618;2023-06-14T03:28:12;18.40;99.90
68354;DHT22;55274;43.060;25.618;2023-06-14T03:30:38;18.50;99.90
68354;DHT22;55274;43.060;25.618;2023-06-14T03:33:04;18.60;99.90
68354;DHT22;55274;43.060;25.618;2023-06-14T03:35:30;18.60;99.90
68354;DHT22;55274;43.060;25.618;2023-06-14T03:37:56;18.60;99.90
68354;DHT22;55274;43.060;25.618;2023-06-14T03:40:21;18.60;99.90
68354;DHT22;55274;43.060;25.618;2023-06-14T03:42:47;18.60;99.90
68354;DHT22;55274;43.060;25.618;2023-06-14T03:45:13;18.70;99.90
68354;DHT22;55274;43.060;25.618;2023-06-14T03:47:39;18.80;99.90
68354;DHT22;55274;43.060;25.618;2023-06-14T03:50:05;18.70;99.90
68354;DHT22;55274;43.060;25.618;2023-06-14T03:52:31;18.70;99.90
68354;DHT22;55274;43.060;25.618;2023-06-14T03:54:58;18.80;99.90
68354;DHT22;55274;43.060;25.618;2023-06-14T03:57:26;18.80;99.90
68354;DHT22;55274;43.060;25.618;2023-06-14T03:59:52;18.80;99.90
68354;DHT22;55274;43.060;25.618;2023-06-14T04:02:17;18.90;99.90
68354;DHT22;55274;43.060;25.618;2023-06-14T04:04:44;18.90;99.90
68354;DHT22;55274;43.060;25.618;2023-06-14T04:07:14;19.00;99.90
68354;DHT22;55274;43.060;25.618;2023-06-14T04:09:40;19.20;99.90
68354;DHT22;55274;43.060;25.618;2023-06-14T04:12:07;19.30;99.90
68354;DHT22;55274;43.060;25.618;2023-06-14T04:14:34;19.50;99.90
68354;DHT22;55274;43.060;25.618;2023-06-14T04:17:00;19.90;99.90
68354;DHT22;55274;43.060;25.618;2023-06-14T04:19:26;20.00;99.90
68354;DHT22;55274;43.060;25.618;2023-06-14T04:21:52;20.00;99.90
68354;DHT22;55274;43.060;25.618;2023-06-14T04:24:18;20.00;99.90
68354;DHT22;55274;43.060;25.618;2023-06-14T04:26:44;20.00;99.90
68354;DHT22;55274;43.060;25.618;2023-06-14T04:29:14;20.00;99.90
68354;DHT22;55274;43.060;25.618;2023-06-14T04:31:45;20.00;99.90
68354;DHT22;55274;43.060;25.618;2023-06-14T04:34:11;19.90;99.90
68354;DHT22;55274;43.060;25.618;2023-06-14T04:36:42;19.90;99.90
68354;DHT22;55274;43.060;25.618;2023-06-14T04:39:18;19.80;99.90
68354;DHT22;55274;43.060;25.618;2023-06-14T04:41:44;19.80;99.90
68354;DHT22;55274;43.060;25.618;2023-06-14T04:44:10;19.90;99.90
68354;DHT22;55274;43.060;25.618;2023-06-14T04:46:36;19.90;99.90
68354;DHT22;55274;43.060;25.618;2023-06-14T04:49:22;19.90;99.90
68354;DHT22;55274;43.060;25.618;2023-06-14T04:51:48;19.90;99.90
68354;DHT22;55274;43.060;25.618;2023-06-14T04:54:23;19.90;99.90
68354;DHT22;55274;43.060;25.618;2023-06-14T04:56:50;19.90;99.90
68354;DHT22;55274;43.060;25.618;2023-06-14T04:59:16;20.00;99.90
68354;DHT22;55274;43.060;25.618;2023-06-14T05:01:43;20.00;99.90
68354;DHT22;55274;43.060;25.618;2023-06-14T05:04:16;20.00;99.90
68354;DHT22;55274;43.060;25.618;2023-06-14T05:06:42;20.10;99.90
68354;DHT22;55274;43.060;25.618;2023-06-14T05:09:13;20.10;99.90
68354;DHT22;55274;43.060;25.618;2023-06-14T05:11:39;20.10;99.90
68354;DHT22;55274;43.060;25.618;2023-06-14T05:14:05;20.10;99.90
68354;DHT22;55274;43.060;25.618;2023-06-14T05:16:32;20.10;99.90
68354;DHT22;55274;43.060;25.618;2023-06-14T05:18:57;20.10;99.90
68354;DHT22;55274;43.060;25.618;2023-06-14T05:21:24;20.20;99.90
68354;DHT22;55274;43.060;25.618;2023-06-14T05:23:50;20.20;99.90
68354;DHT22;55274;43.060;25.618;2023-06-14T05:26:16;20.20;99.90
68354;DHT22;55274;43.060;25.618;2023-06-14T05:28:42;20.30;99.90
68354;DHT22;55274;43.060;25.618;2023-06-14T05:31:08;20.30;99.90
68354;DHT22;55274;43.060;25.618;2023-06-14T05:33:34;20.30;99.90
68354;DHT22;55274;43.060;25.618;2023-06-14T05:36:00;20.30;99.90
68354;DHT22;55274;43.060;25.618;2023-06-14T05:38:25;20.40;99.90
68354;DHT22;55274;43.060;25.618;2023-06-14T05:40:51;20.40;99.90
68354;DHT22;55274;43.060;25.618;2023-06-14T05:43:17;20.40;99.90
68354;DHT22;55274;43.060;25.618;2023-06-14T05:45:42;20.50;99.90
68354;DHT22;55274;43.060;25.618;2023-06-14T05:48:08;20.50;99.90
68354;DHT22;55274;43.060;25.618;2023-06-14T05:50:34;20.60;99.90
68354;DHT22;55274;43.060;25.618;2023-06-14T05:53:00;20.70;99.90
68354;DHT22;55274;43.060;25.618;2023-06-14T05:55:26;20.70;99.90
68354;DHT22;55274;43.060;25.618;2023-06-14T05:57:52;20.70;99.90
68354;DHT22;55274;43.060;25.618;2023-06-14T06:00:18;20.70;99.90
68354;DHT22;55274;43.060;25.618;2023-06-14T06:02:45;20.80;99.90
68354;DHT22;55274;43.060;25.618;2023-06-14T06:05:12;20.80;99.90
68354;DHT22;55274;43.060;25.618;2023-06-14T06:07:38;21.00;99.90
68354;DHT22;55274;43.060;25.618;2023-06-14T06:10:06;21.10;99.90
68354;DHT22;55274;43.060;25.618;2023-06-14T06:12:32;21.10;99.90
68354;DHT22;55274;43.060;25.618;2023-06-14T06:14:59;21.20;99.90
68354;DHT22;55274;43.060;25.618;2023-06-14T06:17:25;21.20;99.90
68354;DHT22;55274;43.060;25.618;2023-06-14T06:19:52;21.30;99.60
68354;DHT22;55274;43.060;25.618;2023-06-14T06:22:17;21.40;98.40
68354;DHT22;55274;43.060;25.618;2023-06-14T06:24:43;21.50;97.20
68354;DHT22;55274;43.060;25.618;2023-06-14T06:27:09;21.60;96.30
68354;DHT22;55274;43.060;25.618;2023-06-14T06:29:36;21.80;95.90
68354;DHT22;55274;43.060;25.618;2023-06-14T06:32:02;21.80;95.40
68354;DHT22;55274;43.060;25.618;2023-06-14T06:34:28;22.00;94.70
68354;DHT22;55274;43.060;25.618;2023-06-14T06:36:54;22.00;93.70
68354;DHT22;55274;43.060;25.618;2023-06-14T06:39:20;22.10;93.70
68354;DHT22;55274;43.060;25.618;2023-06-14T06:41:46;22.30;92.30
68354;DHT22;55274;43.060;25.618;2023-06-14T06:44:12;22.50;91.90
68354;DHT22;55274;43.060;25.618;2023-06-14T06:46:39;22.60;90.30
68354;DHT22;55274;43.060;25.618;2023-06-14T06:49:07;22.80;89.40
68354;DHT22;55274;43.060;25.618;2023-06-14T06:51:34;23.00;88.80
68354;DHT22;55274;43.060;25.618;2023-06-14T06:54:00;23.00;88.80
68354;DHT22;55274;43.060;25.618;2023-06-14T06:56:25;23.10;88.80
68354;DHT22;55274;43.060;25.618;2023-06-14T06:58:52;23.10;87.50
68354;DHT22;55274;43.060;25.618;2023-06-14T07:01:18;23.30;87.10
68354;DHT22;55274;43.060;25.618;2023-06-14T07:03:47;23.40;86.40
68354;DHT22;55274;43.060;25.618;2023-06-14T07:06:13;23.50;86.10
68354;DHT22;55274;43.060;25.618;2023-06-14T07:08:38;23.70;85.80
68354;DHT22;55274;43.060;25.618;2023-06-14T07:11:05;23.80;84.30
68354;DHT22;55274;43.060;25.618;2023-06-14T07:13:34;23.90;84.30
68354;DHT22;55274;43.060;25.618;2023-06-14T07:16:00;24.30;84.90
68354;DHT22;55274;43.060;25.618;2023-06-14T07:18:27;24.50;82.50
68354;DHT22;55274;43.060;25.618;2023-06-14T07:20:53;24.60;82.40
68354;DHT22;55274;43.060;25.618;2023-06-14T07:23:20;24.70;81.90
68354;DHT22;55274;43.060;25.618;2023-06-14T07:25:46;24.70;81.30
68354;DHT22;55274;43.060;25.618;2023-06-14T07:28:12;24.90;81.30
68354;DHT22;55274;43.060;25.618;2023-06-14T07:30:37;25.10;80.20
68354;DHT22;55274;43.060;25.618;2023-06-14T07:33:03;25.30;79.80
68354;DHT22;55274;43.060;25.618;2023-06-14T07:35:29;25.40;79.60
68354;DHT22;55274;43.060;25.618;2023-06-14T07:37:55;25.60;78.40
68354;DHT22;55274;43.060;25.618;2023-06-14T07:40:21;25.60;77.10
68354;DHT22;55274;43.060;25.618;2023-06-14T07:42:47;25.70;76.90
68354;DHT22;55274;43.060;25.618;2023-06-14T07:45:14;25.60;77.00
68354;DHT22;55274;43.060;25.618;2023-06-14T07:47:40;25.80;76.20
68354;DHT22;55274;43.060;25.618;2023-06-14T07:50:06;25.90;75.50
68354;DHT22;55274;43.060;25.618;2023-06-14T07:52:31;25.90;74.40
68354;DHT22;55274;43.060;25.618;2023-06-14T07:54:57;25.80;74.60
68354;DHT22;55274;43.060;25.618;2023-06-14T07:57:23;25.90;74.90
68354;DHT22;55274;43.060;25.618;2023-06-14T07:59:49;26.00;75.10
68354;DHT22;55274;43.060;25.618;2023-06-14T08:02:15;25.90;75.20
68354;DHT22;55274;43.060;25.618;2023-06-14T08:04:41;26.10;75.10
68354;DHT22;55274;43.060;25.618;2023-06-14T08:07:08;26.20;73.40
68354;DHT22;55274;43.060;25.618;2023-06-14T08:09:35;26.30;74.20
68354;DHT22;55274;43.060;25.618;2023-06-14T08:12:04;26.40;72.40
68354;DHT22;55274;43.060;25.618;2023-06-14T08:14:33;26.30;72.50
68354;DHT22;55274;43.060;25.618;2023-06-14T08:16:59;26.30;72.20
68354;DHT22;55274;43.060;25.618;2023-06-14T08:19:25;26.40;72.00
68354;DHT22;55274;43.060;25.618;2023-06-14T08:21:52;26.60;70.90
68354;DHT22;55274;43.060;25.618;2023-06-14T08:24:23;26.70;70.40
68354;DHT22;55274;43.060;25.618;2023-06-14T08:26:55;26.90;69.50
68354;DHT22;55274;43.060;25.618;2023-06-14T08:29:22;26.90;68.80
68354;DHT22;55274;43.060;25.618;2023-06-14T08:31:48;27.30;68.90
68354;DHT22;55274;43.060;25.618;2023-06-14T08:34:13;27.50;68.10
68354;DHT22;55274;43.060;25.618;2023-06-14T08:36:39;27.70;67.50
68354;DHT22;55274;43.060;25.618;2023-06-14T08:39:05;27.90;66.50
68354;DHT22;55274;43.060;25.618;2023-06-14T08:41:31;28.10;66.30
68354;DHT22;55274;43.060;25.618;2023-06-14T08:43:58;28.50;65.70
68354;DHT22;55274;43.060;25.618;2023-06-14T08:46:26;28.70;64.30
68354;DHT22;55274;43.060;25.618;2023-06-14T08:48:55;28.90;63.40
68354;DHT22;55274;43.060;25.618;2023-06-14T08:51:26;28.70;63.90
68354;DHT22;55274;43.060;25.618;2023-06-14T08:54:00;28.60;64.20
68354;DHT22;55274;43.060;25.618;2023-06-14T08:56:31;28.90;63.10
68354;DHT22;55274;43.060;25.618;2023-06-14T08:58:57;29.10;62.80
68354;DHT22;55274;43.060;25.618;2023-06-14T09:01:27;29.20;61.60
68354;DHT22;55274;43.060;25.618;2023-06-14T09:03:53;29.30;61.60
68354;DHT22;55274;43.060;25.618;2023-06-14T09:06:21;29.40;60.50
68354;DHT22;55274;43.060;25.618;2023-06-14T09:08:49;29.40;61.20
68354;DHT22;55274;43.060;25.618;2023-06-14T09:11:17;29.30;61.00
68354;DHT22;55274;43.060;25.618;2023-06-14T09:13:45;29.10;61.50
68354;DHT22;55274;43.060;25.618;2023-06-14T09:16:12;28.90;61.00
68354;DHT22;55274;43.060;25.618;2023-06-14T09:18:41;29.00;61.40
68354;DHT22;55274;43.060;25.618;2023-06-14T09:21:09;29.00;61.30
68354;DHT22;55274;43.060;25.618;2023-06-14T09:23:39;29.00;61.10
68354;DHT22;55274;43.060;25.618;2023-06-14T09:26:12;29.10;62.10
68354;DHT22;55274;43.060;25.618;2023-06-14T09:28:46;29.30;60.00
68354;DHT22;55274;43.060;25.618;2023-06-14T09:31:16;29.40;59.30
68354;DHT22;55274;43.060;25.618;2023-06-14T09:33:43;29.50;58.10
68354;DHT22;55274;43.060;25.618;2023-06-14T09:36:16;29.70;57.00
68354;DHT22;55274;43.060;25.618;2023-06-14T09:38:57;29.80;56.60
68354;DHT22;55274;43.060;25.618;2023-06-14T09:41:40;29.90;56.00
68354;DHT22;55274;43.060;25.618;2023-06-14T09:44:06;29.90;55.60
68354;DHT22;55274;43.060;25.618;2023-06-14T09:46:33;30.00;56.80
68354;DHT22;55274;43.060;25.618;2023-06-14T09:48:59;30.20;55.90
68354;DHT22;55274;43.060;25.618;2023-06-14T09:51:26;30.20;54.20
68354;DHT22;55274;43.060;25.618;2023-06-14T09:53:58;30.10;54.50
68354;DHT22;55274;43.060;25.618;2023-06-14T09:56:28;30.10;54.50
68354;DHT22;55274;43.060;25.618;2023-06-14T09:58:59;29.90;54.50
68354;DHT22;55274;43.060;25.618;2023-06-14T10:01:26;29.90;54.30
68354;DHT22;55274;43.060;25.618;2023-06-14T10:06:28;29.80;56.30
68354;DHT22;55274;43.060;25.618;2023-06-14T10:08:58;29.90;55.30
68354;DHT22;55274;43.060;25.618;2023-06-14T10:11:27;30.00;55.20
68354;DHT22;55274;43.060;25.618;2023-06-14T10:13:55;29.80;55.60
68354;DHT22;55274;43.060;25.618;2023-06-14T10:17:03;29.80;56.20
68354;DHT22;55274;43.060;25.618;2023-06-14T10:22:50;29.80;55.50
68354;DHT22;55274;43.060;25.618;2023-06-14T10:25:30;29.90;56.00
68354;DHT22;55274;43.060;25.618;2023-06-14T10:28:21;30.10;56.10
68354;DHT22;55274;43.060;25.618;2023-06-14T10:31:10;30.20;55.20
68354;DHT22;55274;43.060;25.618;2023-06-14T10:33:48;30.50;54.90
68354;DHT22;55274;43.060;25.618;2023-06-14T10:36:26;30.20;54.90
68354;DHT22;55274;43.060;25.618;2023-06-14T10:41:27;30.00;55.50
68354;DHT22;55274;43.060;25.618;2023-06-14T10:46:39;30.50;53.90
68354;DHT22;55274;43.060;25.618;2023-06-14T10:49:06;30.50;54.10
68354;DHT22;55274;43.060;25.618;2023-06-14T10:51:41;30.00;54.50
68354;DHT22;55274;43.060;25.618;2023-06-14T10:54:13;29.80;54.00
68354;DHT22;55274;43.060;25.618;2023-06-14T10:56:49;29.90;54.60
68354;DHT22;55274;43.060;25.618;2023-06-14T10:59:16;29.90;53.90
68354;DHT22;55274;43.060;25.618;2023-06-14T11:04:52;30.20;53.90
68354;DHT22;55274;43.060;25.618;2023-06-14T11:10:53;30.40;52.30
68354;DHT22;55274;43.060;25.618;2023-06-14T11:13:00;30.20;53.50
68354;DHT22;55274;43.060;25.618;2023-06-14T11:15:32;30.40;53.00
68354;DHT22;55274;43.060;25.618;2023-06-14T11:18:09;30.50;52.60
68354;DHT22;55274;43.060;25.618;2023-06-14T11:20:35;30.50;52.60
68354;DHT22;55274;43.060;25.618;2023-06-14T11:23:02;30.40;53.10
68354;DHT22;55274;43.060;25.618;2023-06-14T11:25:28;30.60;52.20
68354;DHT22;55274;43.060;25.618;2023-06-14T11:27:55;30.60;52.30
68354;DHT22;55274;43.060;25.618;2023-06-14T11:30:21;30.60;52.20
68354;DHT22;55274;43.060;25.618;2023-06-14T11:32:48;30.50;51.80
68354;DHT22;55274;43.060;25.618;2023-06-14T11:35:16;30.50;51.70
68354;DHT22;55274;43.060;25.618;2023-06-14T11:37:44;30.60;52.60
68354;DHT22;55274;43.060;25.618;2023-06-14T11:40:11;31.00;51.10
68354;DHT22;55274;43.060;25.618;2023-06-14T11:42:39;31.10;51.10
68354;DHT22;55274;43.060;25.618;2023-06-14T11:45:11;31.30;50.00
68354;DHT22;55274;43.060;25.618;2023-06-14T11:47:39;31.20;49.20
68354;DHT22;55274;43.060;25.618;2023-06-14T11:50:07;31.50;49.30
68354;DHT22;55274;43.060;25.618;2023-06-14T11:52:37;31.90;49.10
68354;DHT22;55274;43.060;25.618;2023-06-14T11:55:03;31.90;48.70
68354;DHT22;55274;43.060;25.618;2023-06-14T11:57:35;31.60;49.20
68354;DHT22;55274;43.060;25.618;2023-06-14T12:00:07;31.40;50.50
68354;DHT22;55274;43.060;25.618;2023-06-14T12:02:38;31.50;50.70
68354;DHT22;55274;43.060;25.618;2023-06-14T12:05:05;31.40;51.20
68354;DHT22;55274;43.060;25.618;2023-06-14T12:07:37;31.20;50.50
68354;DHT22;55274;43.060;25.618;2023-06-14T12:10:06;31.20;51.60
68354;DHT22;55274;43.060;25.618;2023-06-14T12:12:38;31.40;51.10
68354;DHT22;55274;43.060;25.618;2023-06-14T12:15:06;31.10;49.30
68354;DHT22;55274;43.060;25.618;2023-06-14T12:17:36;30.90;49.10
68354;DHT22;55274;43.060;25.618;2023-06-14T12:20:10;30.80;49.60
68354;DHT22;55274;43.060;25.618;2023-06-14T12:22:37;30.50;49.10
68354;DHT22;55274;43.060;25.618;2023-06-14T12:25:04;30.50;48.80
68354;DHT22;55274;43.060;25.618;2023-06-14T12:27:31;30.60;49.30
68354;DHT22;55274;43.060;25.618;2023-06-14T12:30:03;30.60;49.60
68354;DHT22;55274;43.060;25.618;2023-06-14T12:32:29;30.70;48.70
68354;DHT22;55274;43.060;25.618;2023-06-14T12:34:55;30.70;49.40
68354;DHT22;55274;43.060;25.618;2023-06-14T12:37:21;30.80;48.70
68354;DHT22;55274;43.060;25.618;2023-06-14T12:39:47;30.80;48.00
68354;DHT22;55274;43.060;25.618;2023-06-14T12:42:13;31.00;49.20
68354;DHT22;55274;43.060;25.618;2023-06-14T12:44:40;31.10;49.60
68354;DHT22;55274;43.060;25.618;2023-06-14T12:47:07;30.90;47.70
68354;DHT22;55274;43.060;25.618;2023-06-14T12:49:33;30.90;48.40
68354;DHT22;55274;43.060;25.618;2023-06-14T12:51:59;31.00;49.00
68354;DHT22;55274;43.060;25.618;2023-06-14T12:54:25;30.90;48.70
68354;DHT22;55274;43.060;25.618;2023-06-14T12:56:53;30.90;48.70
68354;DHT22;55274;43.060;25.618;2023-06-14T12:59:20;31.00;48.50
68354;DHT22;55274;43.060;25.618;2023-06-14T13:01:46;31.20;47.50
68354;DHT22;55274;43.060;25.618;2023-06-14T13:04:15;31.10;48.10
68354;DHT22;55274;43.060;25.618;2023-06-14T13:06:41;31.10;47.40
68354;DHT22;55274;43.060;25.618;2023-06-14T13:09:06;31.20;48.10
68354;DHT22;55274;43.060;25.618;2023-06-14T13:11:33;31.00;48.20
68354;DHT22;55274;43.060;25.618;2023-06-14T13:13:59;30.70;48.00
68354;DHT22;55274;43.060;25.618;2023-06-14T13:16:25;30.60;49.20
68354;DHT22;55274;43.060;25.618;2023-06-14T13:18:50;30.80;49.60
68354;DHT22;55274;43.060;25.618;2023-06-14T13:21:16;30.60;48.40
68354;DHT22;55274;43.060;25.618;2023-06-14T13:23:42;30.30;49.40
68354;DHT22;55274;43.060;25.618;2023-06-14T13:26:08;30.20;49.10
68354;DHT22;55274;43.060;25.618;2023-06-14T13:28:34;30.00;49.20
68354;DHT22;55274;43.060;25.618;2023-06-14T13:31:00;30.00;51.40
68354;DHT22;55274;43.060;25.618;2023-06-14T13:33:27;29.90;50.90
68354;DHT22;55274;43.060;25.618;2023-06-14T13:35:53;29.90;50.90
68354;DHT22;55274;43.060;25.618;2023-06-14T13:38:19;29.80;51.00
68354;DHT22;55274;43.060;25.618;2023-06-14T13:40:44;29.90;51.20
68354;DHT22;55274;43.060;25.618;2023-06-14T13:43:10;29.70;50.70
68354;DHT22;55274;43.060;25.618;2023-06-14T13:45:36;29.60;51.50
68354;DHT22;55274;43.060;25.618;2023-06-14T13:48:02;29.60;52.10
68354;DHT22;55274;43.060;25.618;2023-06-14T13:50:28;29.50;53.40
68354;DHT22;55274;43.060;25.618;2023-06-14T13:52:54;29.60;53.90
68354;DHT22;55274;43.060;25.618;2023-06-14T13:55:19;29.40;52.60
68354;DHT22;55274;43.060;25.618;2023-06-14T13:57:45;29.50;52.50
68354;DHT22;55274;43.060;25.618;2023-06-14T14:00:11;29.90;53.60
68354;DHT22;55274;43.060;25.618;2023-06-14T14:02:37;29.90;52.00
68354;DHT22;55274;43.060;25.618;2023-06-14T14:05:05;30.10;51.20
68354;DHT22;55274;43.060;25.618;2023-06-14T14:07:31;29.90;50.60
68354;DHT22;55274;43.060;25.618;2023-06-14T14:09:56;30.00;51.80
68354;DHT22;55274;43.060;25.618;2023-06-14T14:12:23;29.90;52.30
68354;DHT22;55274;43.060;25.618;2023-06-14T14:14:49;30.10;52.10
68354;DHT22;55274;43.060;25.618;2023-06-14T14:17:15;30.00;51.60
68354;DHT22;55274;43.060;25.618;2023-06-14T14:19:41;29.90;51.80
68354;DHT22;55274;43.060;25.618;2023-06-14T14:22:09;29.80;52.10
68354;DHT22;55274;43.060;25.618;2023-06-14T14:24:35;29.60;53.20
68354;DHT22;55274;43.060;25.618;2023-06-14T14:27:01;29.50;54.30
68354;DHT22;55274;43.060;25.618;2023-06-14T14:29:28;29.30;54.30
68354;DHT22;55274;43.060;25.618;2023-06-14T14:31:55;29.20;55.10
68354;DHT22;55274;43.060;25.618;2023-06-14T14:34:22;29.30;55.60
68354;DHT22;55274;43.060;25.618;2023-06-14T14:36:48;29.40;55.70
68354;DHT22;55274;43.060;25.618;2023-06-14T14:39:14;29.30;54.80
68354;DHT22;55274;43.060;25.618;2023-06-14T14:41:40;29.30;55.10
68354;DHT22;55274;43.060;25.618;2023-06-14T14:44:06;29.20;56.20
68354;DHT22;55274;43.060;25.618;2023-06-14T14:46:32;29.30;57.30
68354;DHT22;55274;43.060;25.618;2023-06-14T14:48:59;29.10;58.10
68354;DHT22;55274;43.060;25.618;2023-06-14T14:51:25;29.10;58.40
68354;DHT22;55274;43.060;25.618;2023-06-14T14:53:51;29.10;58.40
68354;DHT22;55274;43.060;25.618;2023-06-14T14:56:17;28.90;56.40
68354;DHT22;55274;43.060;25.618;2023-06-14T14:58:43;28.70;57.80
68354;DHT22;55274;43.060;25.618;2023-06-14T15:01:09;28.80;58.10
68354;DHT22;55274;43.060;25.618;2023-06-14T15:03:36;28.70;57.40
68354;DHT22;55274;43.060;25.618;2023-06-14T15:06:01;28.70;57.10
68354;DHT22;55274;43.060;25.618;2023-06-14T15:08:27;28.70;56.60
68354;DHT22;55274;43.060;25.618;2023-06-14T15:10:53;28.50;57.10
68354;DHT22;55274;43.060;25.618;2023-06-14T15:13:18;28.40;57.90
68354;DHT22;55274;43.060;25.618;2023-06-14T15:15:45;28.40;58.30
68354;DHT22;55274;43.060;25.618;2023-06-14T15:18:11;28.20;57.60
68354;DHT22;55274;43.060;25.618;2023-06-14T15:20:37;28.20;58.30
68354;DHT22;55274;43.060;25.618;2023-06-14T15:23:02;28.20;58.10
68354;DHT22;55274;43.060;25.618;2023-06-14T15:25:28;28.20;59.40
68354;DHT22;55274;43.060;25.618;2023-06-14T15:27:55;28.20;60.00
68354;DHT22;55274;43.060;25.618;2023-06-14T15:30:21;28.20;58.70
68354;DHT22;55274;43.060;25.618;2023-06-14T15:32:48;28.10;59.10
68354;DHT22;55274;43.060;25.618;2023-06-14T15:35:16;28.10;59.20
68354;DHT22;55274;43.060;25.618;2023-06-14T15:37:43;28.10;59.10
68354;DHT22;55274;43.060;25.618;2023-06-14T15:40:09;28.20;59.30